ADDS METAR Data INFO
IDs: Format: Raw Decoded Include TAF

Data at: 1047 UTC 19 Oct 2017

KMYF 190953Z AUTO 19005KT 8SM OVC013 21/16 A2991 RMK AO2 SLP124 T02110161
KMYF 190853Z AUTO 21003KT 8SM OVC011 21/17 A2992 RMK AO2 SLP128 T02110167 56004
KMYF 190825Z AUTO 19005KT 7SM OVC010 21/17 A2992 RMK AO2 T02110167
KMYF 190753Z AUTO 17004KT 6SM HZ OVC009 21/17 A2992 RMK AO2 SLP128 T02110172 402830183
KMYF 190653Z AUTO 12004KT 5SM HZ OVC007 21/17 A2992 RMK AO2 SLP128 T02060172
KMYF 190553Z AUTO 13003KT 6SM HZ OVC008 21/17 A2994 RMK AO2 SLP132 T02110172 10256 20206 50002
KMYF 190517Z AUTO 20003KT 6SM HZ BKN008 21/18 A2994 RMK AO2 T02110178
KMYF 190502Z AUTO 19003KT 6SM HZ SCT008 21/17 A2994 RMK AO2 T02110172
KMYF 190453Z AUTO 20003KT 6SM HZ CLR 21/17 A2994 RMK AO2 SLP134 T02110172
KMYF 190353Z 00000KT 6SM HZ SCT007 22/18 A2993 RMK AO2 SLP131 T02170178
KMYF 190336Z 15003KT 6SM HZ SCT009 22/18 A2993 RMK AO2 T02170178
KMYF 190311Z 22003KT 7SM BKN009 22/18 A2993 RMK AO2 T02170178
KMYF 190253Z 19004KT 7SM FEW009 22/18 A2993 RMK AO2 SLP130 T02170178 51007
KMYF 190231Z 22004KT 7SM FEW009 22/18 A2993 RMK AO2 T02220178
KMYF 190153Z 22004KT 6SM HZ CLR 22/18 A2993 RMK AO2 SLP129 T02220178
KMYF 190053Z 25006KT 7SM CLR 24/17 A2992 RMK AO2 SLP126 T02390172
KMYF 182353Z 21005KT 8SM CLR 26/17 A2991 RMK AO2 SLP124 T02560167 10283 20256 58009
KMYF 182253Z 26006KT 9SM CLR 26/17 A2992 RMK AO2 SLP128 T02610167
KMYF 182153Z 24009KT 9SM CLR 27/16 A2993 RMK AO2 SLP130 T02670161
KMYF 182053Z 19010KT 160V220 10SM CLR 27/14 A2994 RMK AO2 SLP132 T02720144 58012
KMYF 181953Z 19010KT 10SM CLR 28/14 A2995 RMK AO2 SLP136 T02780144
KMYF 181853Z 20010KT 10SM CLR 28/15 A2997 RMK AO2 SLP144 T02780150
KMYF 181753Z 21009KT 10SM CLR 27/16 A2997 RMK AO2 SLP145 6//// T02670156 10283 20183 50006
KMYF 181653Z 20008KT CLR 27/08 A2997 RMK AO2 SLP144 T02720083 PNO $
KMYF 181553Z 16004KT 10SM CLR 26/08 A2996 RMK AO2 SLP141 T02610078
KMYF 181453Z 12003KT 10SM CLR 22/11 A2996 RMK AO2 SLP139 T02220106 52004
KMYF 181353Z 12004KT 10SM CLR 20/11 A2995 RMK AO2 SLP136 T02000111
KMYF 181253Z 00000KT 9SM CLR 19/14 A2995 RMK AO2 SLP138 T01940139
KMYF 181153Z AUTO 00000KT 9SM CLR 19/14 A2994 RMK AO2 SLP135 T01940139 10233 20189 56001
KMYF 181053Z AUTO 00000KT 10SM CLR 20/13 A2994 RMK AO2 SLP134 T02000133
KMYF 180953Z AUTO 00000KT 10SM CLR 20/14 A2994 RMK AO2 SLP133 T02000139
KMYF 180853Z AUTO 21003KT 10SM CLR 22/14 A2995 RMK AO2 SLP135 T02220139 53000
KMYF 180753Z AUTO 30003KT 10SM CLR 22/12 A2994 RMK AO2 SLP134 T02220122 403440200
KMYF 180653Z AUTO 00000KT 10SM CLR 22/13 A2995 RMK AO2 SLP136 T02220128
KMYF 180553Z AUTO 10003KT 10SM CLR 22/11 A2995 RMK AO2 SLP135 T02170106 10294 20217 58002
KMYF 180453Z AUTO 00000KT 10SM CLR 24/10 A2996 RMK AO2 SLP139 T02390100
KMYF 180353Z AUTO 00000KT 10SM CLR 24/09 A2995 RMK AO2 SLP137 T02390089
KMYF 180253Z 00000KT 10SM CLR 25/11 A2995 RMK AO2 SLP137 T02500106 53005
KMYF 180153Z 36004KT 10SM CLR 27/09 A2995 RMK AO2 SLP136 T02670089
KMYF 180053Z 33006KT 10SM CLR 27/14 A2994 RMK AO2 SLP133 T02720144
KMYF 172353Z 30006KT 10SM CLR 29/12 A2994 RMK AO2 SLP132 T02890117 10344 20283 56002
KMYF 172253Z 29008KT 10SM CLR 29/13 A2994 RMK AO2 SLP133 T02940128